createdAt,value
2017-06-28T00:01:11.865Z,52.60
2017-06-28T00:03:39.509Z,52.60
2017-06-28T00:06:07.701Z,52.80
2017-06-28T00:08:35.463Z,52.80
2017-06-28T00:11:03.142Z,52.90
2017-06-28T00:13:31.094Z,52.80
2017-06-28T00:15:58.708Z,52.90
2017-06-28T00:18:27.157Z,52.70
2017-06-28T00:20:55.085Z,52.60
2017-06-28T00:23:22.709Z,52.60
2017-06-28T00:25:51.112Z,52.60
2017-06-28T00:28:19.099Z,52.40
2017-06-28T00:30:46.718Z,52.60
2017-06-28T00:33:15.157Z,52.40
2017-06-28T00:35:43.227Z,52.30
2017-06-28T00:38:10.836Z,52.70
2017-06-28T00:40:39.292Z,52.80
2017-06-28T00:43:07.203Z,52.80
2017-06-28T00:45:34.824Z,52.80
2017-06-28T00:48:02.560Z,52.90
2017-06-28T00:50:30.632Z,52.90
2017-06-28T00:52:58.240Z,53.40
2017-06-28T00:55:26.685Z,53.00
2017-06-28T00:57:54.625Z,53.00
2017-06-28T01:00:22.302Z,53.20
2017-06-28T01:02:49.911Z,53.20
2017-06-28T01:05:18.753Z,53.00
2017-06-28T01:07:46.373Z,53.00
2017-06-28T01:10:13.984Z,53.20
2017-06-28T01:12:41.976Z,53.10
2017-06-28T01:15:10.371Z,53.10
2017-06-28T01:17:38.771Z,53.30
2017-06-28T01:20:06.978Z,53.20
2017-06-28T01:22:34.654Z,53.10
2017-06-28T01:25:02.297Z,53.40
2017-06-28T01:27:30.247Z,53.50
2017-06-28T01:29:57.866Z,53.40
2017-06-28T01:32:26.412Z,53.50
2017-06-28T01:34:54.378Z,53.40
2017-06-28T01:37:22.001Z,53.20
2017-06-28T01:39:49.629Z,53.20
2017-06-28T01:42:17.585Z,53.40
2017-06-28T01:44:45.245Z,53.30
2017-06-28T01:47:12.856Z,53.20
2017-06-28T01:49:40.519Z,53.10
2017-06-28T01:52:08.138Z,53.10
2017-06-28T01:54:36.101Z,53.00
2017-06-28T01:57:03.717Z,52.90
2017-06-28T01:59:31.512Z,52.80
2017-06-28T02:01:59.585Z,52.70
2017-06-28T02:04:27.191Z,52.90
2017-06-28T02:06:55.559Z,52.90
2017-06-28T02:09:24.412Z,52.80
2017-06-28T02:11:52.071Z,52.70
2017-06-28T02:14:19.836Z,52.80
2017-06-28T02:16:47.776Z,52.70
2017-06-28T02:19:15.571Z,52.80
2017-06-28T02:21:43.180Z,52.80
2017-06-28T02:24:11.592Z,52.70
2017-06-28T02:26:39.270Z,52.70
2017-06-28T02:29:07.202Z,52.70
2017-06-28T02:31:34.821Z,52.60
2017-06-28T02:34:02.436Z,52.60
2017-06-28T02:36:30.087Z,52.70
2017-06-28T02:38:57.817Z,52.80
2017-06-28T02:41:25.569Z,52.70
2017-06-28T02:43:53.195Z,52.50
2017-06-28T02:46:21.165Z,52.80
2017-06-28T02:48:48.844Z,52.70
2017-06-28T02:51:16.452Z,52.70
2017-06-28T02:53:44.871Z,52.80
2017-06-28T02:56:12.562Z,52.70
2017-06-28T02:58:40.529Z,53.10
2017-06-28T03:01:08.136Z,53.10
2017-06-28T03:03:35.944Z,53.10
2017-06-28T03:06:03.611Z,53.20
2017-06-28T03:08:31.289Z,53.10
2017-06-28T03:10:59.027Z,53.10
2017-06-28T03:13:26.655Z,53.20
2017-06-28T03:15:54.645Z,53.30
2017-06-28T03:18:22.256Z,53.20
2017-06-28T03:20:50.646Z,53.30
2017-06-28T03:23:19.044Z,53.30
2017-06-28T03:25:46.656Z,53.20
2017-06-28T03:28:14.423Z,53.30
2017-06-28T03:30:42.065Z,53.30
2017-06-28T03:33:10.046Z,53.30
2017-06-28T03:35:37.656Z,53.30
2017-06-28T03:38:05.369Z,53.60
2017-06-28T03:40:33.033Z,53.60
2017-06-28T03:43:00.678Z,53.60
2017-06-28T03:45:28.630Z,53.70
2017-06-28T03:47:56.240Z,53.50
2017-06-28T03:50:23.878Z,53.80
2017-06-28T03:52:51.543Z,53.80
2017-06-28T03:55:19.147Z,53.50
2017-06-28T03:57:47.089Z,54.00
2017-06-28T04:00:14.696Z,54.10
2017-06-28T04:02:42.489Z,54.30
2017-06-28T04:05:10.252Z,54.00
2017-06-28T04:07:37.869Z,54.20
2017-06-28T04:10:05.852Z,54.20
2017-06-28T04:12:33.646Z,54.00
2017-06-28T04:15:01.337Z,54.10
2017-06-28T04:17:30.608Z,53.90
2017-06-28T04:19:58.268Z,53.90
2017-06-28T04:22:26.218Z,53.80
2017-06-28T04:24:54.004Z,54.20
2017-06-28T04:27:21.664Z,54.00
2017-06-28T04:29:49.309Z,54.20
2017-06-28T04:32:16.987Z,54.00
2017-06-28T04:34:44.884Z,53.90
2017-06-28T04:37:12.506Z,54.00
2017-06-28T04:39:40.282Z,53.80
2017-06-28T04:42:07.933Z,53.60
2017-06-28T04:44:35.603Z,53.70
2017-06-28T04:47:03.589Z,54.00
2017-06-28T04:49:31.255Z,53.90
2017-06-28T04:51:58.894Z,53.90
2017-06-28T04:54:26.662Z,53.70
2017-06-28T04:56:54.426Z,54.00
2017-06-28T04:59:22.376Z,54.00
2017-06-28T05:01:50.159Z,53.60
2017-06-28T05:04:17.782Z,53.50
2017-06-28T05:06:45.415Z,53.70
2017-06-28T05:09:13.068Z,53.60
2017-06-28T05:11:41.216Z,53.80
2017-06-28T05:14:08.875Z,53.60
2017-06-28T05:16:36.559Z,53.50
2017-06-28T05:19:04.306Z,54.00
2017-06-28T05:21:31.964Z,54.00
2017-06-28T05:23:59.923Z,54.20
2017-06-28T05:26:27.527Z,54.20
2017-06-28T05:28:55.258Z,54.30
2017-06-28T05:31:22.896Z,54.10
2017-06-28T05:33:50.513Z,54.40
2017-06-28T05:36:18.440Z,54.20
2017-06-28T05:38:46.062Z,54.40
2017-06-28T05:41:14.457Z,54.70
2017-06-28T05:43:42.106Z,54.60
2017-06-28T05:46:09.835Z,54.40
2017-06-28T05:48:37.751Z,54.90
2017-06-28T05:51:05.456Z,55.20
2017-06-28T05:53:33.133Z,54.60
2017-06-28T05:56:00.886Z,54.50
2017-06-28T05:58:28.495Z,54.50
2017-06-28T06:00:56.471Z,54.30
2017-06-28T06:03:24.161Z,53.80
2017-06-28T06:05:51.763Z,54.30
2017-06-28T06:08:20.223Z,53.90
2017-06-28T06:10:47.842Z,53.90
2017-06-28T06:13:15.752Z,53.80
2017-06-28T06:15:43.370Z,53.60
2017-06-28T06:18:11.080Z,53.40
2017-06-28T06:20:38.819Z,52.70
2017-06-28T06:23:06.507Z,52.70
2017-06-28T06:25:34.669Z,52.80
2017-06-28T06:28:02.299Z,52.10
2017-06-28T06:30:29.988Z,52.50
2017-06-28T06:32:57.743Z,52.30
2017-06-28T06:35:25.417Z,52.20
2017-06-28T06:37:53.480Z,52.10
2017-06-28T06:40:21.238Z,51.70
2017-06-28T06:42:48.857Z,51.90
2017-06-28T06:45:16.669Z,52.00
2017-06-28T06:47:44.281Z,52.00
2017-06-28T06:50:12.200Z,51.20
2017-06-28T06:52:39.959Z,51.60
2017-06-28T06:55:07.581Z,51.50
2017-06-28T06:57:35.303Z,51.50
2017-06-28T07:00:02.935Z,51.10
2017-06-28T07:02:30.934Z,50.40
2017-06-28T07:04:58.553Z,50.60
2017-06-28T07:07:26.163Z,51.00
2017-06-28T07:09:53.908Z,50.90
2017-06-28T07:12:21.663Z,50.20
2017-06-28T07:14:49.310Z,50.60
2017-06-28T07:17:16.929Z,50.30
2017-06-28T07:19:45.686Z,49.80
2017-06-28T07:22:13.334Z,49.80
2017-06-28T07:24:41.102Z,49.90
2017-06-28T07:27:08.736Z,50.00
2017-06-28T07:29:36.363Z,49.30
2017-06-28T07:32:05.076Z,49.00
2017-06-28T07:34:32.905Z,49.00
2017-06-28T07:37:00.635Z,48.60
2017-06-28T07:39:28.512Z,48.50
2017-06-28T07:41:56.129Z,48.70
2017-06-28T07:44:24.049Z,48.40
2017-06-28T07:46:51.796Z,48.20
2017-06-28T07:49:19.479Z,48.00
2017-06-28T07:51:47.117Z,48.40
2017-06-28T07:54:14.781Z,48.20
2017-06-28T07:56:42.457Z,48.10
2017-06-28T07:59:10.121Z,48.10
2017-06-28T08:01:38.095Z,48.00
2017-06-28T08:04:05.759Z,48.00
2017-06-28T08:06:33.381Z,47.10
2017-06-28T08:09:01.029Z,47.20
2017-06-28T08:11:28.719Z,47.10
2017-06-28T08:13:56.680Z,46.10
2017-06-28T08:16:24.305Z,46.80
2017-06-28T08:18:52.731Z,46.20
2017-06-28T08:21:20.495Z,46.10
2017-06-28T08:23:48.147Z,46.50
2017-06-28T08:26:16.124Z,45.50
2017-06-28T08:28:43.762Z,45.70
2017-06-28T08:31:11.371Z,45.30
2017-06-28T08:33:39.010Z,45.10
2017-06-28T08:36:06.635Z,45.50
2017-06-28T08:38:34.608Z,45.50
2017-06-28T08:41:02.301Z,45.00
2017-06-28T08:43:29.959Z,45.20
2017-06-28T08:45:57.725Z,45.40
2017-06-28T08:48:25.347Z,45.20
2017-06-28T08:50:53.333Z,44.70
2017-06-28T08:53:21.032Z,45.00
2017-06-28T08:55:49.093Z,44.30
2017-06-28T08:58:16.778Z,44.10
2017-06-28T09:00:44.720Z,43.90
2017-06-28T09:03:12.669Z,44.20
2017-06-28T09:05:40.279Z,44.00
2017-06-28T09:08:07.892Z,44.10
2017-06-28T09:10:35.532Z,44.10
2017-06-28T09:13:03.259Z,44.10
2017-06-28T09:15:31.305Z,44.20
2017-06-28T09:17:58.926Z,44.00
2017-06-28T09:20:26.629Z,43.90
2017-06-28T09:22:54.279Z,43.60
2017-06-28T09:25:21.975Z,43.10
2017-06-28T09:27:49.901Z,43.40
2017-06-28T09:30:17.688Z,43.10
2017-06-28T09:32:45.361Z,43.00
2017-06-28T09:35:13.000Z,43.30
2017-06-28T09:37:40.621Z,42.20
2017-06-28T09:40:08.663Z,42.30
2017-06-28T09:42:36.280Z,42.30
2017-06-28T09:45:04.068Z,42.20
2017-06-28T09:47:31.714Z,42.60
2017-06-28T09:49:59.344Z,42.50
2017-06-28T09:52:27.352Z,42.60
2017-06-28T09:54:55.125Z,43.00
2017-06-28T09:57:22.806Z,42.20
2017-06-28T09:59:50.570Z,42.30
2017-06-28T10:02:18.230Z,42.60
2017-06-28T10:04:46.287Z,42.40
2017-06-28T10:07:13.906Z,42.30
2017-06-28T10:09:41.526Z,42.50
2017-06-28T10:12:09.166Z,42.70
2017-06-28T10:14:36.772Z,42.40
2017-06-28T10:17:05.529Z,42.80
2017-06-28T10:19:33.150Z,42.80
2017-06-28T10:22:00.764Z,42.60
2017-06-28T10:24:28.500Z,43.00
2017-06-28T10:26:56.264Z,43.20
2017-06-28T10:29:23.900Z,42.70
2017-06-28T10:31:51.526Z,42.90
2017-06-28T10:34:20.289Z,41.60
2017-06-28T10:36:48.038Z,41.50
2017-06-28T10:39:15.807Z,41.80
2017-06-28T10:41:43.487Z,41.60
2017-06-28T10:44:11.126Z,41.90
2017-06-28T10:46:39.073Z,41.70
2017-06-28T10:49:06.696Z,40.90
2017-06-28T10:51:34.433Z,41.10
2017-06-28T10:54:02.082Z,40.60
2017-06-28T10:56:29.701Z,41.40
2017-06-28T10:58:57.688Z,40.50
2017-06-28T11:01:25.309Z,40.80
2017-06-28T11:03:53.137Z,40.20
2017-06-28T11:06:20.775Z,40.20
2017-06-28T11:08:48.568Z,40.10
2017-06-28T11:11:16.514Z,39.90
2017-06-28T11:13:44.133Z,39.80
2017-06-28T11:16:11.745Z,40.20
2017-06-28T11:18:39.438Z,39.60
2017-06-28T11:21:07.062Z,39.40
2017-06-28T11:23:35.063Z,39.30
2017-06-28T11:26:02.810Z,39.70
2017-06-28T11:28:30.474Z,39.20
2017-06-28T11:30:58.117Z,39.30
2017-06-28T11:33:25.897Z,39.40
2017-06-28T11:35:53.839Z,39.60
2017-06-28T11:38:21.448Z,39.00
2017-06-28T11:40:49.074Z,39.10
2017-06-28T11:43:16.731Z,39.30
2017-06-28T11:45:44.351Z,39.20
2017-06-28T11:48:12.358Z,39.00
2017-06-28T11:50:40.058Z,38.90
2017-06-28T11:53:07.807Z,39.10
2017-06-28T11:55:35.449Z,39.20
2017-06-28T11:58:03.233Z,38.40
2017-06-28T12:00:31.224Z,38.30
2017-06-28T12:02:58.966Z,38.90
2017-06-28T12:05:26.626Z,39.20
2017-06-28T12:07:54.297Z,38.90
2017-06-28T12:10:21.921Z,39.20
2017-06-28T12:12:49.570Z,39.10
2017-06-28T12:15:17.192Z,38.90
2017-06-28T12:17:45.111Z,38.70
2017-06-28T12:20:12.813Z,38.70
2017-06-28T12:22:40.682Z,39.20
2017-06-28T12:25:08.551Z,38.70
2017-06-28T12:27:36.421Z,39.10
2017-06-28T12:30:04.598Z,38.30
2017-06-28T12:32:32.459Z,39.10
2017-06-28T12:35:00.335Z,38.60
2017-06-28T12:37:28.193Z,38.30
2017-06-28T12:39:56.055Z,38.20
2017-06-28T12:42:24.113Z,38.70
2017-06-28T12:44:51.899Z,38.60
2017-06-28T12:47:19.774Z,38.70
2017-06-28T12:49:47.636Z,38.70
2017-06-28T12:52:15.406Z,38.80
2017-06-28T12:54:44.148Z,39.00
2017-06-28T12:57:11.907Z,39.00
2017-06-28T12:59:39.606Z,39.40
2017-06-28T13:02:07.474Z,39.60
2017-06-28T13:04:35.159Z,39.60
2017-06-28T13:07:03.243Z,39.80
2017-06-28T13:09:31.782Z,40.00
2017-06-28T13:11:59.579Z,40.00
2017-06-28T13:14:27.330Z,40.10
2017-06-28T13:16:55.078Z,40.20
2017-06-28T13:19:23.242Z,40.30
2017-06-28T13:21:51.004Z,40.40
2017-06-28T13:24:18.782Z,40.50
2017-06-28T13:26:46.501Z,40.70
2017-06-28T13:29:14.230Z,40.70
2017-06-28T13:31:42.692Z,40.90
2017-06-28T13:34:10.562Z,40.90
2017-06-28T13:36:38.741Z,40.90
2017-06-28T13:39:06.491Z,41.00
2017-06-28T13:41:34.366Z,41.10
2017-06-28T13:44:02.235Z,41.20
2017-06-28T13:46:30.814Z,41.30
2017-06-28T13:48:58.882Z,41.30
2017-06-28T13:51:26.583Z,41.40
2017-06-28T13:53:54.207Z,41.60
2017-06-28T13:56:21.953Z,41.90
2017-06-28T13:58:49.741Z,43.70
2017-06-28T14:01:21.883Z,43.30
2017-06-28T14:03:49.671Z,44.30
2017-06-28T14:06:17.433Z,44.90
2017-06-28T14:08:45.197Z,44.80
2017-06-28T14:11:12.907Z,45.80
2017-06-28T14:13:40.964Z,46.00
2017-06-28T14:16:08.742Z,46.20
2017-06-28T14:18:36.480Z,46.40
2017-06-28T14:21:05.143Z,46.90
2017-06-28T14:23:33.017Z,46.90
2017-06-28T14:26:01.173Z,47.30
2017-06-28T14:28:29.056Z,47.70
2017-06-28T14:30:56.915Z,47.80
2017-06-28T14:33:24.715Z,48.20
2017-06-28T14:35:52.457Z,48.60
2017-06-28T14:38:20.246Z,48.90
2017-06-28T14:40:48.788Z,49.30
2017-06-28T14:43:16.847Z,49.40
2017-06-28T14:45:44.612Z,49.70
2017-06-28T14:48:12.346Z,49.90
2017-06-28T14:50:40.176Z,50.20
2017-06-28T14:53:08.611Z,50.80
2017-06-28T14:55:36.649Z,50.80
2017-06-28T14:58:04.389Z,51.10
2017-06-28T15:00:32.143Z,51.30
2017-06-28T15:02:59.893Z,51.60
2017-06-28T15:05:27.588Z,52.20
2017-06-28T15:07:56.492Z,52.60
2017-06-28T15:10:24.254Z,52.60
2017-06-28T15:12:52.898Z,53.20
2017-06-28T15:15:20.724Z,53.20
2017-06-28T15:17:48.545Z,53.50
2017-06-28T15:20:16.791Z,54.40
2017-06-28T15:22:44.576Z,54.70
2017-06-28T15:25:12.344Z,55.40
2017-06-28T15:27:40.144Z,55.10
2017-06-28T15:30:07.952Z,55.00
2017-06-28T15:32:36.038Z,55.50
2017-06-28T15:35:03.801Z,55.20
2017-06-28T15:37:31.487Z,55.90
2017-06-28T15:40:00.150Z,56.10
2017-06-28T15:42:28.020Z,55.90
2017-06-28T15:44:56.119Z,56.10
2017-06-28T15:47:24.669Z,56.40
2017-06-28T15:49:52.547Z,56.40
2017-06-28T15:52:20.409Z,56.20
2017-06-28T15:54:48.276Z,56.30
2017-06-28T15:57:16.143Z,55.80
2017-06-28T15:59:44.007Z,55.60
2017-06-28T16:02:11.821Z,55.90
2017-06-28T16:04:39.630Z,56.30
2017-06-28T16:07:07.730Z,55.60
2017-06-28T16:09:36.189Z,56.70
2017-06-28T16:12:03.951Z,56.00
2017-06-28T16:14:31.827Z,55.80
2017-06-28T16:16:59.568Z,55.80
2017-06-28T16:19:28.248Z,55.30
2017-06-28T16:21:55.944Z,55.10
2017-06-28T16:24:23.899Z,55.70
2017-06-28T16:26:55.479Z,56.10
2017-06-28T16:29:23.935Z,55.40
2017-06-28T16:31:53.113Z,55.30
2017-06-28T16:34:21.005Z,56.20
2017-06-28T16:36:48.866Z,56.00
2017-06-28T16:39:16.740Z,55.60
2017-06-28T16:41:44.598Z,55.70
2017-06-28T16:44:13.918Z,55.90
2017-06-28T16:46:41.679Z,56.30
2017-06-28T16:49:09.535Z,56.00
2017-06-28T16:51:37.888Z,55.90
2017-06-28T16:54:05.781Z,55.90
2017-06-28T16:56:34.010Z,55.80
2017-06-28T16:59:01.813Z,55.60
2017-06-28T17:01:29.681Z,55.70
2017-06-28T17:03:57.547Z,56.20
2017-06-28T17:06:25.517Z,57.00
2017-06-28T17:08:53.692Z,56.70
2017-06-28T17:11:21.560Z,55.90
2017-06-28T17:13:49.319Z,55.80
2017-06-28T17:16:17.090Z,55.80
2017-06-28T17:18:45.070Z,55.40
2017-06-28T17:21:13.587Z,55.90
2017-06-28T17:23:41.346Z,55.90
2017-06-28T17:26:09.152Z,55.60
2017-06-28T17:28:37.223Z,55.40
2017-06-28T17:31:04.897Z,56.00
2017-06-28T17:33:32.744Z,55.30
2017-06-28T17:36:00.732Z,55.80
2017-06-28T17:38:28.574Z,56.00
2017-06-28T17:40:56.477Z,55.70
2017-06-28T17:43:24.260Z,55.90
2017-06-28T17:45:53.104Z,55.50
2017-06-28T17:48:20.874Z,55.50
2017-06-28T17:50:48.559Z,55.40
2017-06-28T17:53:16.323Z,55.50
2017-06-28T17:55:44.063Z,55.10
2017-06-28T17:58:11.722Z,55.70
2017-06-28T18:00:39.411Z,55.20
2017-06-28T18:03:07.148Z,55.20
2017-06-28T18:05:34.782Z,55.40
2017-06-28T18:08:02.678Z,55.00
2017-06-28T18:10:31.382Z,54.50
2017-06-28T18:12:59.248Z,54.40
2017-06-28T18:15:27.124Z,54.70
2017-06-28T18:17:55.086Z,54.40
2017-06-28T18:20:22.946Z,54.80
2017-06-28T18:22:50.923Z,54.30
2017-06-28T18:25:18.784Z,54.10
2017-06-28T18:27:46.658Z,54.40
2017-06-28T18:30:14.482Z,54.20
2017-06-28T18:32:42.244Z,54.40
2017-06-28T18:35:10.152Z,53.90
2017-06-28T18:37:38.013Z,54.60
2017-06-28T18:40:06.190Z,54.80
2017-06-28T18:42:34.067Z,54.70
2017-06-28T18:45:01.929Z,55.00
2017-06-28T18:47:29.992Z,55.30
2017-06-28T18:49:57.863Z,54.70
2017-06-28T18:52:26.037Z,54.90
2017-06-28T18:54:54.114Z,55.10
2017-06-28T18:57:21.975Z,55.60
2017-06-28T18:59:50.247Z,55.30
2017-06-28T19:02:18.525Z,55.60
2017-06-28T19:04:46.396Z,55.50
2017-06-28T19:07:14.266Z,55.40
2017-06-28T19:09:42.034Z,55.80
2017-06-28T19:12:09.890Z,56.20
2017-06-28T19:14:37.765Z,56.20
2017-06-28T19:17:05.620Z,55.80
2017-06-28T19:19:33.490Z,55.80
2017-06-28T19:22:01.472Z,56.20
2017-06-28T19:24:29.208Z,56.10
2017-06-28T19:26:56.870Z,56.10
2017-06-28T19:29:24.637Z,56.30
2017-06-28T19:31:52.321Z,56.60
2017-06-28T19:34:20.073Z,56.30
2017-06-28T19:36:47.699Z,56.20
2017-06-28T19:39:15.687Z,56.10
2017-06-28T19:41:43.456Z,56.10
2017-06-28T19:44:11.216Z,56.40
2017-06-28T19:46:39.214Z,56.30
2017-06-28T19:49:06.950Z,56.80
2017-06-28T19:51:34.905Z,56.90
2017-06-28T19:54:02.519Z,57.10
2017-06-28T19:56:31.063Z,57.00
2017-06-28T19:58:58.714Z,57.00
2017-06-28T20:01:26.345Z,56.80
2017-06-28T20:03:54.334Z,58.10
2017-06-28T20:06:21.976Z,57.60
2017-06-28T20:08:49.679Z,57.70
2017-06-28T20:11:17.545Z,58.10
2017-06-28T20:13:45.313Z,57.90
2017-06-28T20:16:13.281Z,58.00
2017-06-28T20:18:40.970Z,58.20
2017-06-28T20:21:08.611Z,57.70
2017-06-28T20:23:36.382Z,58.30
2017-06-28T20:26:06.117Z,57.80
2017-06-28T20:28:34.456Z,58.10
2017-06-28T20:31:02.081Z,58.30
2017-06-28T20:33:29.711Z,58.70
2017-06-28T20:35:58.185Z,58.90
2017-06-28T20:38:26.026Z,58.90
2017-06-28T20:40:54.097Z,58.50
2017-06-28T20:43:21.788Z,58.90
2017-06-28T20:45:50.339Z,57.80
2017-06-28T20:48:19.088Z,58.40
2017-06-28T20:50:46.793Z,58.50
2017-06-28T20:53:14.736Z,58.60
2017-06-28T20:55:42.427Z,58.40
2017-06-28T20:58:10.084Z,59.10
2017-06-28T21:00:37.729Z,58.60
2017-06-28T21:03:05.358Z,59.00
2017-06-28T21:05:34.113Z,58.40
2017-06-28T21:08:01.733Z,58.30
2017-06-28T21:10:29.523Z,59.00
2017-06-28T21:12:57.286Z,58.80
2017-06-28T21:15:24.913Z,58.30
2017-06-28T21:17:52.640Z,58.50
2017-06-28T21:20:20.290Z,58.70
2017-06-28T21:22:48.263Z,58.70
2017-06-28T21:25:16.017Z,58.10
2017-06-28T21:27:43.666Z,58.20
2017-06-28T21:30:11.352Z,57.90
2017-06-28T21:32:38.961Z,58.40
2017-06-28T21:35:06.936Z,58.30
2017-06-28T21:37:34.544Z,58.00
2017-06-28T21:40:02.165Z,58.00
